sensor_id;sensor_type;location;lat;lon;timestamp;P1;durP1;ratioP1;P2;durP2;ratioP2
13801;SDS011;6972;51.518;6.918;2023-05-10T00:01:04;1.50;;;1.20;;
13801;SDS011;6972;51.518;6.918;2023-05-10T00:03:30;1.40;;;1.20;;
13801;SDS011;6972;51.518;6.918;2023-05-10T00:05:56;1.50;;;1.27;;
13801;SDS011;6972;51.518;6.918;2023-05-10T00:08:22;1.95;;;1.20;;
13801;SDS011;6972;51.518;6.918;2023-05-10T00:10:48;1.40;;;1.17;;
13801;SDS011;6972;51.518;6.918;2023-05-10T00:13:14;1.42;;;1.30;;
13801;SDS011;6972;51.518;6.918;2023-05-10T00:15:40;2.47;;;1.58;;
13801;SDS011;6972;51.518;6.918;2023-05-10T00:18:06;2.17;;;1.30;;
13801;SDS011;6972;51.518;6.918;2023-05-10T00:20:32;1.50;;;1.20;;
13801;SDS011;6972;51.518;6.918;2023-05-10T00:22:58;1.65;;;1.40;;
13801;SDS011;6972;51.518;6.918;2023-05-10T00:25:24;1.73;;;1.20;;
13801;SDS011;6972;51.518;6.918;2023-05-10T00:27:51;1.30;;;1.20;;
13801;SDS011;6972;51.518;6.918;2023-05-10T00:30:17;2.10;;;1.50;;
13801;SDS011;6972;51.518;6.918;2023-05-10T00:32:43;1.85;;;1.27;;
13801;SDS011;6972;51.518;6.918;2023-05-10T00:35:09;1.70;;;1.30;;
13801;SDS011;6972;51.518;6.918;2023-05-10T00:37:35;1.50;;;1.40;;
13801;SDS011;6972;51.518;6.918;2023-05-10T00:40:01;2.10;;;1.63;;
13801;SDS011;6972;51.518;6.918;2023-05-10T00:42:27;1.42;;;1.30;;
13801;SDS011;6972;51.518;6.918;2023-05-10T00:44:53;1.77;;;1.42;;
13801;SDS011;6972;51.518;6.918;2023-05-10T00:47:19;1.75;;;1.45;;
13801;SDS011;6972;51.518;6.918;2023-05-10T00:49:45;2.58;;;1.33;;
13801;SDS011;6972;51.518;6.918;2023-05-10T00:52:11;1.63;;;1.30;;
13801;SDS011;6972;51.518;6.918;2023-05-10T00:54:37;1.70;;;1.33;;
13801;SDS011;6972;51.518;6.918;2023-05-10T00:57:03;1.60;;;1.30;;
13801;SDS011;6972;51.518;6.918;2023-05-10T00:59:29;1.50;;;1.23;;
13801;SDS011;6972;51.518;6.918;2023-05-10T01:01:55;1.55;;;1.30;;
13801;SDS011;6972;51.518;6.918;2023-05-10T01:04:22;1.52;;;1.40;;
13801;SDS011;6972;51.518;6.918;2023-05-10T01:06:50;1.52;;;1.42;;
13801;SDS011;6972;51.518;6.918;2023-05-10T01:09:18;1.40;;;1.30;;
13801;SDS011;6972;51.518;6.918;2023-05-10T01:11:44;2.10;;;1.40;;
13801;SDS011;6972;51.518;6.918;2023-05-10T01:14:10;1.67;;;1.30;;
13801;SDS011;6972;51.518;6.918;2023-05-10T01:16:40;1.30;;;1.20;;
13801;SDS011;6972;51.518;6.918;2023-05-10T01:19:22;1.38;;;1.27;;
13801;SDS011;6972;51.518;6.918;2023-05-10T01:33:02;1.73;;;1.30;;
13801;SDS011;6972;51.518;6.918;2023-05-10T01:35:43;1.50;;;1.20;;
13801;SDS011;6972;51.518;6.918;2023-05-10T01:47:04;1.70;;;1.30;;
13801;SDS011;6972;51.518;6.918;2023-05-10T01:49:52;1.55;;;1.38;;
13801;SDS011;6972;51.518;6.918;2023-05-10T01:52:22;1.77;;;1.30;;
13801;SDS011;6972;51.518;6.918;2023-05-10T01:55:07;1.75;;;1.42;;
13801;SDS011;6972;51.518;6.918;2023-05-10T01:57:36;2.60;;;1.42;;
13801;SDS011;6972;51.518;6.918;2023-05-10T02:00:04;1.42;;;1.20;;
13801;SDS011;6972;51.518;6.918;2023-05-10T02:02:33;1.20;;;1.10;;
13801;SDS011;6972;51.518;6.918;2023-05-10T02:05:03;1.55;;;1.38;;
13801;SDS011;6972;51.518;6.918;2023-05-10T02:07:30;1.33;;;1.23;;
13801;SDS011;6972;51.518;6.918;2023-05-10T02:09:59;2.30;;;1.45;;
13801;SDS011;6972;51.518;6.918;2023-05-10T02:12:26;1.27;;;1.17;;
13801;SDS011;6972;51.518;6.918;2023-05-10T02:14:53;1.33;;;1.20;;
13801;SDS011;6972;51.518;6.918;2023-05-10T02:17:20;1.70;;;1.30;;
13801;SDS011;6972;51.518;6.918;2023-05-10T02:19:48;1.48;;;1.38;;
13801;SDS011;6972;51.518;6.918;2023-05-10T02:22:14;1.60;;;1.42;;
13801;SDS011;6972;51.518;6.918;2023-05-10T02:24:41;3.45;;;1.50;;
13801;SDS011;6972;51.518;6.918;2023-05-10T02:27:08;1.88;;;1.25;;
13801;SDS011;6972;51.518;6.918;2023-05-10T02:29:35;1.65;;;1.50;;
13801;SDS011;6972;51.518;6.918;2023-05-10T02:32:01;1.60;;;1.50;;
13801;SDS011;6972;51.518;6.918;2023-05-10T02:34:28;1.50;;;1.33;;
13801;SDS011;6972;51.518;6.918;2023-05-10T02:36:54;1.75;;;1.60;;
13801;SDS011;6972;51.518;6.918;2023-05-10T02:39:21;1.60;;;1.50;;
13801;SDS011;6972;51.518;6.918;2023-05-10T02:41:48;1.75;;;1.20;;
13801;SDS011;6972;51.518;6.918;2023-05-10T02:44:15;1.52;;;1.33;;
13801;SDS011;6972;51.518;6.918;2023-05-10T02:46:44;1.45;;;1.30;;
13801;SDS011;6972;51.518;6.918;2023-05-10T02:49:11;1.40;;;1.30;;
13801;SDS011;6972;51.518;6.918;2023-05-10T02:51:40;1.20;;;1.10;;
13801;SDS011;6972;51.518;6.918;2023-05-10T02:54:12;1.55;;;1.45;;
13801;SDS011;6972;51.518;6.918;2023-05-10T02:56:47;1.40;;;1.30;;
13801;SDS011;6972;51.518;6.918;2023-05-10T02:59:16;1.48;;;1.38;;
13801;SDS011;6972;51.518;6.918;2023-05-10T03:01:41;1.50;;;1.40;;
13801;SDS011;6972;51.518;6.918;2023-05-10T03:04:07;1.35;;;1.25;;
13801;SDS011;6972;51.518;6.918;2023-05-10T03:06:33;1.48;;;1.38;;
13801;SDS011;6972;51.518;6.918;2023-05-10T03:08:59;1.50;;;1.40;;
13801;SDS011;6972;51.518;6.918;2023-05-10T03:14:28;2.05;;;1.65;;
13801;SDS011;6972;51.518;6.918;2023-05-10T03:16:56;1.70;;;1.50;;
13801;SDS011;6972;51.518;6.918;2023-05-10T03:19:36;1.85;;;1.60;;
13801;SDS011;6972;51.518;6.918;2023-05-10T03:22:10;1.63;;;1.50;;
13801;SDS011;6972;51.518;6.918;2023-05-10T03:24:38;1.73;;;1.50;;
13801;SDS011;6972;51.518;6.918;2023-05-10T03:27:06;1.60;;;1.40;;
13801;SDS011;6972;51.518;6.918;2023-05-10T03:29:33;1.60;;;1.50;;
13801;SDS011;6972;51.518;6.918;2023-05-10T03:32:00;1.85;;;1.58;;
13801;SDS011;6972;51.518;6.918;2023-05-10T03:34:26;1.95;;;1.63;;
13801;SDS011;6972;51.518;6.918;2023-05-10T03:36:52;1.98;;;1.80;;
13801;SDS011;6972;51.518;6.918;2023-05-10T03:39:18;1.65;;;1.50;;
13801;SDS011;6972;51.518;6.918;2023-05-10T03:41:44;2.67;;;2.22;;
13801;SDS011;6972;51.518;6.918;2023-05-10T03:44:10;1.95;;;1.70;;
13801;SDS011;6972;51.518;6.918;2023-05-10T03:46:36;2.58;;;1.60;;
13801;SDS011;6972;51.518;6.918;2023-05-10T03:49:02;2.53;;;1.98;;
13801;SDS011;6972;51.518;6.918;2023-05-10T03:51:28;2.53;;;1.60;;
13801;SDS011;6972;51.518;6.918;2023-05-10T03:53:56;2.20;;;1.77;;
13801;SDS011;6972;51.518;6.918;2023-05-10T03:56:22;2.47;;;1.88;;
13801;SDS011;6972;51.518;6.918;2023-05-10T03:58:48;2.03;;;1.67;;
13801;SDS011;6972;51.518;6.918;2023-05-10T04:01:14;2.17;;;1.88;;
13801;SDS011;6972;51.518;6.918;2023-05-10T04:03:40;2.80;;;1.80;;
13801;SDS011;6972;51.518;6.918;2023-05-10T04:06:05;1.83;;;1.63;;
13801;SDS011;6972;51.518;6.918;2023-05-10T04:08:33;2.20;;;1.70;;
13801;SDS011;6972;51.518;6.918;2023-05-10T04:11:07;3.03;;;1.98;;
13801;SDS011;6972;51.518;6.918;2023-05-10T04:13:33;2.30;;;1.85;;
13801;SDS011;6972;51.518;6.918;2023-05-10T04:15:59;2.65;;;1.85;;
13801;SDS011;6972;51.518;6.918;2023-05-10T04:18:26;2.97;;;1.92;;
13801;SDS011;6972;51.518;6.918;2023-05-10T04:20:52;2.83;;;2.05;;
13801;SDS011;6972;51.518;6.918;2023-05-10T04:23:18;2.05;;;1.80;;
13801;SDS011;6972;51.518;6.918;2023-05-10T04:25:44;2.53;;;2.00;;
13801;SDS011;6972;51.518;6.918;2023-05-10T04:28:10;1.90;;;1.70;;
13801;SDS011;6972;51.518;6.918;2023-05-10T04:30:36;2.65;;;2.00;;
13801;SDS011;6972;51.518;6.918;2023-05-10T04:33:02;2.20;;;1.80;;
13801;SDS011;6972;51.518;6.918;2023-05-10T04:35:28;2.28;;;2.00;;
13801;SDS011;6972;51.518;6.918;2023-05-10T04:37:54;1.98;;;1.75;;
13801;SDS011;6972;51.518;6.918;2023-05-10T04:40:20;3.40;;;2.08;;
13801;SDS011;6972;51.518;6.918;2023-05-10T04:42:46;2.92;;;2.50;;
13801;SDS011;6972;51.518;6.918;2023-05-10T04:45:12;3.40;;;2.33;;
13801;SDS011;6972;51.518;6.918;2023-05-10T04:47:41;4.13;;;2.50;;
13801;SDS011;6972;51.518;6.918;2023-05-10T04:50:08;2.60;;;2.17;;
13801;SDS011;6972;51.518;6.918;2023-05-10T04:52:34;2.35;;;2.13;;
13801;SDS011;6972;51.518;6.918;2023-05-10T04:55:00;3.17;;;2.20;;
13801;SDS011;6972;51.518;6.918;2023-05-10T04:57:26;3.03;;;2.65;;
13801;SDS011;6972;51.518;6.918;2023-05-10T04:59:52;3.03;;;2.38;;
13801;SDS011;6972;51.518;6.918;2023-05-10T05:02:18;2.78;;;2.28;;
13801;SDS011;6972;51.518;6.918;2023-05-10T05:04:43;2.50;;;2.30;;
13801;SDS011;6972;51.518;6.918;2023-05-10T05:07:09;3.33;;;2.10;;
13801;SDS011;6972;51.518;6.918;2023-05-10T05:09:35;3.28;;;2.35;;
13801;SDS011;6972;51.518;6.918;2023-05-10T05:12:01;2.55;;;2.20;;
13801;SDS011;6972;51.518;6.918;2023-05-10T05:14:27;3.08;;;2.53;;
13801;SDS011;6972;51.518;6.918;2023-05-10T05:16:53;2.55;;;2.00;;
13801;SDS011;6972;51.518;6.918;2023-05-10T05:19:19;3.15;;;2.60;;
13801;SDS011;6972;51.518;6.918;2023-05-10T05:21:45;6.55;;;2.30;;
13801;SDS011;6972;51.518;6.918;2023-05-10T05:24:11;3.15;;;2.58;;
13801;SDS011;6972;51.518;6.918;2023-05-10T05:26:37;2.70;;;2.30;;
13801;SDS011;6972;51.518;6.918;2023-05-10T05:29:03;4.95;;;2.70;;
13801;SDS011;6972;51.518;6.918;2023-05-10T05:31:29;2.92;;;2.60;;
13801;SDS011;6972;51.518;6.918;2023-05-10T05:33:55;3.15;;;2.55;;
13801;SDS011;6972;51.518;6.918;2023-05-10T05:36:21;3.63;;;2.65;;
13801;SDS011;6972;51.518;6.918;2023-05-10T05:38:48;3.55;;;2.97;;
13801;SDS011;6972;51.518;6.918;2023-05-10T05:41:14;6.03;;;2.72;;
13801;SDS011;6972;51.518;6.918;2023-05-10T05:43:40;4.43;;;2.63;;
13801;SDS011;6972;51.518;6.918;2023-05-10T05:46:07;3.60;;;2.90;;
13801;SDS011;6972;51.518;6.918;2023-05-10T05:48:33;3.35;;;2.92;;
13801;SDS011;6972;51.518;6.918;2023-05-10T05:50:59;4.63;;;3.20;;
13801;SDS011;6972;51.518;6.918;2023-05-10T05:53:25;3.15;;;2.72;;
13801;SDS011;6972;51.518;6.918;2023-05-10T05:55:54;3.47;;;2.78;;
13801;SDS011;6972;51.518;6.918;2023-05-10T05:58:24;2.92;;;2.47;;
13801;SDS011;6972;51.518;6.918;2023-05-10T06:00:50;3.30;;;2.92;;
13801;SDS011;6972;51.518;6.918;2023-05-10T06:03:17;3.58;;;3.00;;
13801;SDS011;6972;51.518;6.918;2023-05-10T06:05:43;3.80;;;3.15;;
13801;SDS011;6972;51.518;6.918;2023-05-10T06:08:09;3.28;;;2.83;;
13801;SDS011;6972;51.518;6.918;2023-05-10T06:10:35;4.07;;;2.97;;
13801;SDS011;6972;51.518;6.918;2023-05-10T06:13:01;4.72;;;2.90;;
13801;SDS011;6972;51.518;6.918;2023-05-10T06:15:27;3.95;;;2.97;;
13801;SDS011;6972;51.518;6.918;2023-05-10T06:17:53;4.18;;;3.30;;
13801;SDS011;6972;51.518;6.918;2023-05-10T06:20:19;3.20;;;2.78;;
13801;SDS011;6972;51.518;6.918;2023-05-10T06:22:45;3.78;;;2.90;;
13801;SDS011;6972;51.518;6.918;2023-05-10T06:25:11;3.42;;;2.75;;
13801;SDS011;6972;51.518;6.918;2023-05-10T06:27:36;3.55;;;3.05;;
13801;SDS011;6972;51.518;6.918;2023-05-10T06:30:03;3.00;;;2.65;;
13801;SDS011;6972;51.518;6.918;2023-05-10T06:32:29;2.95;;;2.65;;
13801;SDS011;6972;51.518;6.918;2023-05-10T06:34:55;3.13;;;2.80;;
13801;SDS011;6972;51.518;6.918;2023-05-10T06:37:21;5.32;;;2.78;;
13801;SDS011;6972;51.518;6.918;2023-05-10T06:39:47;3.28;;;2.78;;
13801;SDS011;6972;51.518;6.918;2023-05-10T06:42:13;3.40;;;2.80;;
13801;SDS011;6972;51.518;6.918;2023-05-10T06:44:39;3.03;;;2.60;;
13801;SDS011;6972;51.518;6.918;2023-05-10T06:47:05;3.15;;;2.67;;
13801;SDS011;6972;51.518;6.918;2023-05-10T06:49:31;3.17;;;2.50;;
13801;SDS011;6972;51.518;6.918;2023-05-10T06:51:57;2.97;;;2.53;;
13801;SDS011;6972;51.518;6.918;2023-05-10T06:54:23;3.67;;;2.50;;
13801;SDS011;6972;51.518;6.918;2023-05-10T06:56:49;3.63;;;2.80;;
13801;SDS011;6972;51.518;6.918;2023-05-10T06:59:15;3.28;;;2.42;;
13801;SDS011;6972;51.518;6.918;2023-05-10T07:01:41;3.67;;;2.40;;
13801;SDS011;6972;51.518;6.918;2023-05-10T07:04:08;3.05;;;2.40;;
13801;SDS011;6972;51.518;6.918;2023-05-10T07:06:34;2.83;;;2.30;;
13801;SDS011;6972;51.518;6.918;2023-05-10T07:09:00;2.80;;;2.33;;
13801;SDS011;6972;51.518;6.918;2023-05-10T07:11:29;2.90;;;2.20;;
13801;SDS011;6972;51.518;6.918;2023-05-10T07:13:55;2.90;;;2.20;;
13801;SDS011;6972;51.518;6.918;2023-05-10T07:16:21;2.67;;;2.15;;
13801;SDS011;6972;51.518;6.918;2023-05-10T07:18:46;2.53;;;2.33;;
13801;SDS011;6972;51.518;6.918;2023-05-10T07:21:13;2.85;;;2.38;;
13801;SDS011;6972;51.518;6.918;2023-05-10T07:23:38;3.85;;;2.38;;
13801;SDS011;6972;51.518;6.918;2023-05-10T07:26:04;3.47;;;2.50;;
13801;SDS011;6972;51.518;6.918;2023-05-10T07:28:30;4.03;;;2.67;;
13801;SDS011;6972;51.518;6.918;2023-05-10T07:30:56;3.78;;;2.53;;
13801;SDS011;6972;51.518;6.918;2023-05-10T07:33:22;4.30;;;3.45;;
13801;SDS011;6972;51.518;6.918;2023-05-10T07:35:48;3.83;;;3.00;;
13801;SDS011;6972;51.518;6.918;2023-05-10T07:38:14;3.83;;;3.35;;
13801;SDS011;6972;51.518;6.918;2023-05-10T07:40:40;5.18;;;3.60;;
13801;SDS011;6972;51.518;6.918;2023-05-10T07:43:06;4.15;;;3.20;;
13801;SDS011;6972;51.518;6.918;2023-05-10T07:45:33;3.78;;;2.97;;
13801;SDS011;6972;51.518;6.918;2023-05-10T07:47:58;4.72;;;2.90;;
13801;SDS011;6972;51.518;6.918;2023-05-10T07:50:24;3.53;;;2.70;;
13801;SDS011;6972;51.518;6.918;2023-05-10T07:52:50;3.15;;;2.78;;
13801;SDS011;6972;51.518;6.918;2023-05-10T07:55:17;3.65;;;2.75;;
13801;SDS011;6972;51.518;6.918;2023-05-10T07:57:43;4.28;;;3.28;;
13801;SDS011;6972;51.518;6.918;2023-05-10T08:00:11;4.18;;;3.28;;
13801;SDS011;6972;51.518;6.918;2023-05-10T08:02:38;5.47;;;3.83;;
13801;SDS011;6972;51.518;6.918;2023-05-10T08:05:04;4.72;;;3.78;;
13801;SDS011;6972;51.518;6.918;2023-05-10T08:07:30;4.97;;;3.97;;
13801;SDS011;6972;51.518;6.918;2023-05-10T08:09:56;4.95;;;3.67;;
13801;SDS011;6972;51.518;6.918;2023-05-10T08:12:22;5.00;;;3.33;;
13801;SDS011;6972;51.518;6.918;2023-05-10T08:14:48;6.55;;;3.65;;
13801;SDS011;6972;51.518;6.918;2023-05-10T08:17:14;5.32;;;3.78;;
13801;SDS011;6972;51.518;6.918;2023-05-10T08:19:40;5.40;;;3.58;;
13801;SDS011;6972;51.518;6.918;2023-05-10T08:22:06;6.18;;;3.80;;
13801;SDS011;6972;51.518;6.918;2023-05-10T08:24:32;5.38;;;3.17;;
13801;SDS011;6972;51.518;6.918;2023-05-10T08:27:03;3.58;;;3.05;;
13801;SDS011;6972;51.518;6.918;2023-05-10T08:29:29;5.88;;;3.58;;
13801;SDS011;6972;51.518;6.918;2023-05-10T08:31:55;4.43;;;3.13;;
13801;SDS011;6972;51.518;6.918;2023-05-10T08:34:20;5.15;;;3.22;;
13801;SDS011;6972;51.518;6.918;2023-05-10T08:36:46;4.63;;;2.85;;
13801;SDS011;6972;51.518;6.918;2023-05-10T08:39:12;4.55;;;3.70;;
13801;SDS011;6972;51.518;6.918;2023-05-10T08:41:38;4.35;;;3.15;;
13801;SDS011;6972;51.518;6.918;2023-05-10T08:44:08;5.00;;;3.28;;
13801;SDS011;6972;51.518;6.918;2023-05-10T08:46:37;4.50;;;3.00;;
13801;SDS011;6972;51.518;6.918;2023-05-10T08:49:07;3.80;;;2.90;;
13801;SDS011;6972;51.518;6.918;2023-05-10T08:51:35;3.78;;;2.78;;
13801;SDS011;6972;51.518;6.918;2023-05-10T08:54:05;4.05;;;3.05;;
13801;SDS011;6972;51.518;6.918;2023-05-10T08:56:31;4.75;;;3.17;;
13801;SDS011;6972;51.518;6.918;2023-05-10T08:58:57;3.30;;;2.85;;
13801;SDS011;6972;51.518;6.918;2023-05-10T09:01:23;4.45;;;3.03;;
13801;SDS011;6972;51.518;6.918;2023-05-10T09:03:50;3.90;;;2.97;;
13801;SDS011;6972;51.518;6.918;2023-05-10T09:06:16;4.70;;;3.13;;
13801;SDS011;6972;51.518;6.918;2023-05-10T09:08:42;3.92;;;2.95;;
13801;SDS011;6972;51.518;6.918;2023-05-10T09:11:09;3.83;;;2.90;;
13801;SDS011;6972;51.518;6.918;2023-05-10T09:13:35;3.65;;;2.75;;
13801;SDS011;6972;51.518;6.918;2023-05-10T09:16:02;4.53;;;3.10;;
13801;SDS011;6972;51.518;6.918;2023-05-10T09:18:28;3.83;;;2.92;;
13801;SDS011;6972;51.518;6.918;2023-05-10T09:20:54;3.70;;;2.92;;
13801;SDS011;6972;51.518;6.918;2023-05-10T09:23:23;4.32;;;3.38;;
13801;SDS011;6972;51.518;6.918;2023-05-10T09:26:03;4.45;;;3.05;;
13801;SDS011;6972;51.518;6.918;2023-05-10T09:28:50;4.05;;;3.13;;
13801;SDS011;6972;51.518;6.918;2023-05-10T09:31:17;3.78;;;3.00;;
13801;SDS011;6972;51.518;6.918;2023-05-10T09:33:43;3.80;;;3.03;;
13801;SDS011;6972;51.518;6.918;2023-05-10T09:36:11;4.80;;;2.97;;
13801;SDS011;6972;51.518;6.918;2023-05-10T09:38:50;4.82;;;2.95;;
13801;SDS011;6972;51.518;6.918;2023-05-10T09:41:20;4.15;;;3.08;;
13801;SDS011;6972;51.518;6.918;2023-05-10T09:43:47;3.92;;;3.00;;
13801;SDS011;6972;51.518;6.918;2023-05-10T09:46:14;3.90;;;3.10;;
13801;SDS011;6972;51.518;6.918;2023-05-10T09:48:41;3.75;;;2.63;;
13801;SDS011;6972;51.518;6.918;2023-05-10T09:51:09;3.70;;;2.92;;
13801;SDS011;6972;51.518;6.918;2023-05-10T09:53:35;5.93;;;3.08;;
13801;SDS011;6972;51.518;6.918;2023-05-10T09:56:01;4.10;;;3.20;;
13801;SDS011;6972;51.518;6.918;2023-05-10T09:58:27;4.20;;;3.50;;
13801;SDS011;6972;51.518;6.918;2023-05-10T10:00:53;4.93;;;3.13;;
13801;SDS011;6972;51.518;6.918;2023-05-10T10:03:20;4.07;;;2.97;;
13801;SDS011;6972;51.518;6.918;2023-05-10T10:05:47;3.10;;;2.80;;
13801;SDS011;6972;51.518;6.918;2023-05-10T10:08:13;3.97;;;3.35;;
13801;SDS011;6972;51.518;6.918;2023-05-10T10:10:40;4.20;;;2.78;;
13801;SDS011;6972;51.518;6.918;2023-05-10T10:13:06;3.50;;;2.78;;
13801;SDS011;6972;51.518;6.918;2023-05-10T10:15:32;3.83;;;3.08;;
13801;SDS011;6972;51.518;6.918;2023-05-10T10:17:59;3.58;;;2.95;;
13801;SDS011;6972;51.518;6.918;2023-05-10T10:20:25;5.00;;;3.13;;
13801;SDS011;6972;51.518;6.918;2023-05-10T10:22:54;3.75;;;3.05;;
13801;SDS011;6972;51.518;6.918;2023-05-10T10:25:20;5.20;;;2.78;;
13801;SDS011;6972;51.518;6.918;2023-05-10T10:33:01;5.28;;;2.58;;
13801;SDS011;6972;51.518;6.918;2023-05-10T10:35:54;3.30;;;2.65;;
13801;SDS011;6972;51.518;6.918;2023-05-10T10:38:20;4.05;;;2.58;;
13801;SDS011;6972;51.518;6.918;2023-05-10T10:40:47;3.40;;;2.63;;
13801;SDS011;6972;51.518;6.918;2023-05-10T10:43:23;3.05;;;2.40;;
13801;SDS011;6972;51.518;6.918;2023-05-10T10:46:23;3.38;;;2.42;;
13801;SDS011;6972;51.518;6.918;2023-05-10T10:48:49;3.58;;;2.72;;
13801;SDS011;6972;51.518;6.918;2023-05-10T10:51:36;3.47;;;2.63;;
13801;SDS011;6972;51.518;6.918;2023-05-10T10:54:11;6.45;;;2.85;;
13801;SDS011;6972;51.518;6.918;2023-05-10T10:56:37;4.10;;;2.63;;
13801;SDS011;6972;51.518;6.918;2023-05-10T10:59:03;4.72;;;2.70;;
13801;SDS011;6972;51.518;6.918;2023-05-10T11:01:32;2.97;;;2.15;;
13801;SDS011;6972;51.518;6.918;2023-05-10T11:08:59;3.08;;;2.28;;
13801;SDS011;6972;51.518;6.918;2023-05-10T11:11:34;3.58;;;2.63;;
13801;SDS011;6972;51.518;6.918;2023-05-10T11:14:04;3.58;;;2.45;;
13801;SDS011;6972;51.518;6.918;2023-05-10T11:16:41;3.38;;;2.38;;
13801;SDS011;6972;51.518;6.918;2023-05-10T11:19:10;3.67;;;2.20;;
13801;SDS011;6972;51.518;6.918;2023-05-10T11:24:30;3.72;;;2.28;;
13801;SDS011;6972;51.518;6.918;2023-05-10T11:26:56;3.35;;;2.50;;
13801;SDS011;6972;51.518;6.918;2023-05-10T11:29:22;3.38;;;2.35;;
13801;SDS011;6972;51.518;6.918;2023-05-10T11:31:51;2.95;;;2.10;;
13801;SDS011;6972;51.518;6.918;2023-05-10T11:34:24;2.33;;;2.03;;
13801;SDS011;6972;51.518;6.918;2023-05-10T11:36:55;2.40;;;1.90;;
13801;SDS011;6972;51.518;6.918;2023-05-10T11:39:25;3.28;;;2.13;;
13801;SDS011;6972;51.518;6.918;2023-05-10T11:41:54;2.92;;;2.05;;
13801;SDS011;6972;51.518;6.918;2023-05-10T11:44:20;2.88;;;2.22;;
13801;SDS011;6972;51.518;6.918;2023-05-10T11:46:46;4.88;;;2.17;;
13801;SDS011;6972;51.518;6.918;2023-05-10T11:49:12;2.72;;;2.20;;
13801;SDS011;6972;51.518;6.918;2023-05-10T11:51:38;2.50;;;2.00;;
13801;SDS011;6972;51.518;6.918;2023-05-10T11:54:05;2.85;;;2.10;;
13801;SDS011;6972;51.518;6.918;2023-05-10T11:56:33;2.90;;;2.20;;
13801;SDS011;6972;51.518;6.918;2023-05-10T11:58:59;2.13;;;1.92;;
13801;SDS011;6972;51.518;6.918;2023-05-10T12:01:27;3.10;;;2.13;;
13801;SDS011;6972;51.518;6.918;2023-05-10T12:03:54;2.00;;;1.80;;
13801;SDS011;6972;51.518;6.918;2023-05-10T12:06:29;2.83;;;1.80;;
13801;SDS011;6972;51.518;6.918;2023-05-10T12:08:56;3.00;;;2.00;;
13801;SDS011;6972;51.518;6.918;2023-05-10T12:11:26;2.97;;;2.00;;
13801;SDS011;6972;51.518;6.918;2023-05-10T12:13:53;2.88;;;2.10;;
13801;SDS011;6972;51.518;6.918;2023-05-10T12:16:23;2.40;;;1.98;;
13801;SDS011;6972;51.518;6.918;2023-05-10T12:18:51;3.35;;;2.35;;
13801;SDS011;6972;51.518;6.918;2023-05-10T12:21:18;2.22;;;1.90;;
13801;SDS011;6972;51.518;6.918;2023-05-10T12:23:45;2.38;;;1.90;;
13801;SDS011;6972;51.518;6.918;2023-05-10T12:26:12;2.30;;;2.05;;
13801;SDS011;6972;51.518;6.918;2023-05-10T12:28:38;2.20;;;2.00;;
13801;SDS011;6972;51.518;6.918;2023-05-10T12:31:07;2.15;;;1.95;;
13801;SDS011;6972;51.518;6.918;2023-05-10T12:33:36;2.45;;;1.92;;
13801;SDS011;6972;51.518;6.918;2023-05-10T12:36:08;1.98;;;1.77;;
13801;SDS011;6972;51.518;6.918;2023-05-10T12:38:39;1.85;;;1.67;;
13801;SDS011;6972;51.518;6.918;2023-05-10T12:41:13;2.83;;;1.88;;
13801;SDS011;6972;51.518;6.918;2023-05-10T12:43:40;2.25;;;1.70;;
13801;SDS011;6972;51.518;6.918;2023-05-10T12:48:36;3.50;;;1.60;;
13801;SDS011;6972;51.518;6.918;2023-05-10T12:51:03;2.38;;;1.75;;
13801;SDS011;6972;51.518;6.918;2023-05-10T12:53:30;2.53;;;1.60;;
13801;SDS011;6972;51.518;6.918;2023-05-10T12:55:56;3.20;;;1.60;;
13801;SDS011;6972;51.518;6.918;2023-05-10T12:58:22;2.65;;;1.70;;
13801;SDS011;6972;51.518;6.918;2023-05-10T13:00:48;1.77;;;1.48;;
13801;SDS011;6972;51.518;6.918;2023-05-10T13:03:14;2.75;;;1.80;;
13801;SDS011;6972;51.518;6.918;2023-05-10T13:05:40;1.60;;;1.42;;
13801;SDS011;6972;51.518;6.918;2023-05-10T13:08:06;2.58;;;1.48;;
13801;SDS011;6972;51.518;6.918;2023-05-10T13:10:32;2.92;;;1.60;;
13801;SDS011;6972;51.518;6.918;2023-05-10T13:12:59;2.22;;;1.50;;
13801;SDS011;6972;51.518;6.918;2023-05-10T13:15:25;1.65;;;1.38;;
13801;SDS011;6972;51.518;6.918;2023-05-10T13:17:52;1.35;;;1.23;;
13801;SDS011;6972;51.518;6.918;2023-05-10T13:20:18;2.25;;;1.52;;
13801;SDS011;6972;51.518;6.918;2023-05-10T13:22:45;1.88;;;1.40;;
13801;SDS011;6972;51.518;6.918;2023-05-10T13:25:11;1.70;;;1.30;;
13801;SDS011;6972;51.518;6.918;2023-05-10T13:27:39;3.17;;;1.42;;
13801;SDS011;6972;51.518;6.918;2023-05-10T13:30:05;1.90;;;1.33;;
13801;SDS011;6972;51.518;6.918;2023-05-10T13:32:32;1.77;;;1.50;;
13801;SDS011;6972;51.518;6.918;2023-05-10T13:34:58;2.70;;;1.40;;
13801;SDS011;6972;51.518;6.918;2023-05-10T13:37:24;1.98;;;1.27;;
13801;SDS011;6972;51.518;6.918;2023-05-10T13:39:50;1.48;;;1.38;;
13801;SDS011;6972;51.518;6.918;2023-05-10T13:42:17;2.58;;;1.60;;
13801;SDS011;6972;51.518;6.918;2023-05-10T13:44:43;2.90;;;1.50;;
13801;SDS011;6972;51.518;6.918;2023-05-10T13:47:10;1.65;;;1.40;;
13801;SDS011;6972;51.518;6.918;2023-05-10T13:49:36;1.73;;;1.30;;
13801;SDS011;6972;51.518;6.918;2023-05-10T13:52:02;1.85;;;1.40;;
13801;SDS011;6972;51.518;6.918;2023-05-10T13:54:31;2.75;;;1.50;;
13801;SDS011;6972;51.518;6.918;2023-05-10T13:56:58;3.65;;;1.50;;
13801;SDS011;6972;51.518;6.918;2023-05-10T13:59:24;2.08;;;1.50;;
13801;SDS011;6972;51.518;6.918;2023-05-10T14:01:50;2.50;;;1.40;;
13801;SDS011;6972;51.518;6.918;2023-05-10T14:04:16;1.60;;;1.33;;
13801;SDS011;6972;51.518;6.918;2023-05-10T14:06:42;3.33;;;1.20;;
13801;SDS011;6972;51.518;6.918;2023-05-10T14:09:08;2.67;;;1.50;;
13801;SDS011;6972;51.518;6.918;2023-05-10T14:11:34;1.50;;;1.40;;
13801;SDS011;6972;51.518;6.918;2023-05-10T14:14:00;1.42;;;1.25;;
13801;SDS011;6972;51.518;6.918;2023-05-10T14:16:27;1.58;;;1.48;;
13801;SDS011;6972;51.518;6.918;2023-05-10T14:18:53;1.60;;;1.45;;
13801;SDS011;6972;51.518;6.918;2023-05-10T14:21:19;1.38;;;1.27;;
13801;SDS011;6972;51.518;6.918;2023-05-10T14:23:45;2.10;;;1.30;;
13801;SDS011;6972;51.518;6.918;2023-05-10T14:26:11;1.80;;;1.23;;
13801;SDS011;6972;51.518;6.918;2023-05-10T14:28:37;1.58;;;1.20;;
13801;SDS011;6972;51.518;6.918;2023-05-10T14:31:03;2.13;;;1.42;;
13801;SDS011;6972;51.518;6.918;2023-05-10T14:33:30;2.17;;;1.42;;
13801;SDS011;6972;51.518;6.918;2023-05-10T14:35:56;1.83;;;1.30;;
13801;SDS011;6972;51.518;6.918;2023-05-10T14:38:22;2.20;;;1.40;;
13801;SDS011;6972;51.518;6.918;2023-05-10T14:40:48;1.52;;;1.30;;
13801;SDS011;6972;51.518;6.918;2023-05-10T14:43:14;1.88;;;1.30;;
13801;SDS011;6972;51.518;6.918;2023-05-10T14:45:40;1.73;;;1.23;;
13801;SDS011;6972;51.518;6.918;2023-05-10T14:48:06;1.60;;;1.38;;
13801;SDS011;6972;51.518;6.918;2023-05-10T14:50:36;1.83;;;1.40;;
13801;SDS011;6972;51.518;6.918;2023-05-10T14:55:28;1.48;;;1.38;;
13801;SDS011;6972;51.518;6.918;2023-05-10T14:57:55;2.00;;;1.55;;
13801;SDS011;6972;51.518;6.918;2023-05-10T15:00:21;1.27;;;1.10;;
13801;SDS011;6972;51.518;6.918;2023-05-10T15:02:48;1.58;;;1.20;;
13801;SDS011;6972;51.518;6.918;2023-05-10T15:05:14;1.33;;;1.23;;
13801;SDS011;6972;51.518;6.918;2023-05-10T15:07:40;2.33;;;1.27;;
13801;SDS011;6972;51.518;6.918;2023-05-10T15:10:08;2.03;;;1.38;;
13801;SDS011;6972;51.518;6.918;2023-05-10T15:12:35;1.67;;;1.25;;
13801;SDS011;6972;51.518;6.918;2023-05-10T15:15:01;3.88;;;1.30;;
13801;SDS011;6972;51.518;6.918;2023-05-10T15:17:27;1.75;;;1.20;;
13801;SDS011;6972;51.518;6.918;2023-05-10T15:19:53;1.98;;;1.50;;
13801;SDS011;6972;51.518;6.918;2023-05-10T15:22:19;2.13;;;1.35;;
13801;SDS011;6972;51.518;6.918;2023-05-10T15:24:46;1.60;;;1.25;;
13801;SDS011;6972;51.518;6.918;2023-05-10T15:27:12;2.85;;;1.27;;
13801;SDS011;6972;51.518;6.918;2023-05-10T15:29:38;1.77;;;1.30;;
13801;SDS011;6972;51.518;6.918;2023-05-10T15:32:04;1.23;;;1.13;;
13801;SDS011;6972;51.518;6.918;2023-05-10T15:34:30;1.60;;;1.20;;
13801;SDS011;6972;51.518;6.918;2023-05-10T15:36:56;1.75;;;1.20;;
13801;SDS011;6972;51.518;6.918;2023-05-10T15:39:22;2.15;;;1.30;;
13801;SDS011;6972;51.518;6.918;2023-05-10T15:41:48;1.58;;;1.15;;